createdAt,value
2022-08-09T00:01:02.888Z,13.10
2022-08-09T00:04:06.064Z,13.10
2022-08-09T00:06:23.029Z,13.00
2022-08-09T00:08:57.053Z,13.10
2022-08-09T00:11:27.841Z,13.20
2022-08-09T00:14:17.349Z,13.00
2022-08-09T00:16:50.795Z,13.00
2022-08-09T00:19:20.739Z,13.10
2022-08-09T00:21:56.655Z,13.10
2022-08-09T00:24:27.436Z,13.00
2022-08-09T00:26:56.058Z,13.00
2022-08-09T00:29:39.165Z,12.80
2022-08-09T00:32:26.940Z,12.80
2022-08-09T00:34:55.611Z,12.90
2022-08-09T00:37:23.992Z,12.90
2022-08-09T00:40:12.873Z,12.90
2022-08-09T00:44:13.805Z,12.80
2022-08-09T00:45:30.310Z,12.80
2022-08-09T00:48:03.431Z,12.80
2022-08-09T00:50:31.564Z,12.70
2022-08-09T00:53:00.083Z,12.80
2022-08-09T00:56:04.379Z,12.90
2022-08-09T00:58:30.508Z,12.80
2022-08-09T01:01:03.448Z,12.90
2022-08-09T01:03:46.553Z,12.90
2022-08-09T01:06:19.098Z,12.70
2022-08-09T01:08:52.791Z,12.60
2022-08-09T01:11:26.879Z,12.60
2022-08-09T01:13:59.919Z,12.60
2022-08-09T01:16:33.215Z,12.60
2022-08-09T01:19:06.679Z,12.70
2022-08-09T01:21:51.416Z,12.60
2022-08-09T01:24:29.131Z,12.60
2022-08-09T01:27:01.710Z,12.60
2022-08-09T01:29:48.663Z,12.50
2022-08-09T01:32:30.182Z,12.50
2022-08-09T01:35:07.134Z,12.50
2022-08-09T01:38:07.843Z,12.50
2022-08-09T01:40:40.939Z,12.50
2022-08-09T01:43:14.528Z,12.50
2022-08-09T01:45:46.171Z,12.40
2022-08-09T01:48:17.540Z,12.40
2022-08-09T01:50:49.024Z,12.40
2022-08-09T01:53:28.879Z,12.50
2022-08-09T01:56:04.594Z,12.40
2022-08-09T01:58:36.859Z,12.30
2022-08-09T02:01:06.989Z,12.30
2022-08-09T02:03:36.568Z,12.30
2022-08-09T02:06:10.300Z,12.30
2022-08-09T02:08:58.744Z,12.20
2022-08-09T02:11:42.751Z,12.20
2022-08-09T02:14:25.460Z,12.20
2022-08-09T02:17:14.513Z,12.20
2022-08-09T02:19:44.435Z,12.20
2022-08-09T02:22:38.015Z,12.10
2022-08-09T02:25:09.461Z,12.20
2022-08-09T02:28:00.116Z,12.10
2022-08-09T02:30:31.406Z,12.20
2022-08-09T02:33:00.875Z,12.20
2022-08-09T02:36:01.044Z,12.10
2022-08-09T02:38:27.832Z,12.20
2022-08-09T02:41:00.349Z,12.20
2022-08-09T02:43:30.395Z,12.20
2022-08-09T02:46:18.058Z,12.20
2022-08-09T02:48:47.300Z,12.10
2022-08-09T02:51:21.806Z,12.10
2022-08-09T02:54:01.261Z,12.00
2022-08-09T02:56:30.584Z,12.10
2022-08-09T02:59:01.123Z,12.00
2022-08-09T03:01:58.637Z,12.10
2022-08-09T03:04:21.344Z,12.10
2022-08-09T03:06:57.994Z,12.10
2022-08-09T03:09:33.691Z,12.00
2022-08-09T03:12:06.716Z,12.00
2022-08-09T03:14:39.377Z,11.90
2022-08-09T03:17:16.444Z,11.90
2022-08-09T03:19:57.933Z,12.00
2022-08-09T03:22:30.945Z,12.10
2022-08-09T03:25:06.455Z,12.20
2022-08-09T03:27:50.209Z,12.30
2022-08-09T03:30:28.127Z,12.30
2022-08-09T03:33:13.154Z,12.30
2022-08-09T03:36:16.069Z,12.20
2022-08-09T03:38:42.516Z,12.10
2022-08-09T03:41:15.427Z,12.20
2022-08-09T03:44:03.384Z,12.00
2022-08-09T03:46:33.162Z,12.10
2022-08-09T03:49:07.967Z,12.20
2022-08-09T03:51:43.649Z,12.20
2022-08-09T03:54:29.286Z,12.30
2022-08-09T03:56:58.473Z,12.30
2022-08-09T03:59:53.631Z,12.40
2022-08-09T04:02:19.786Z,12.40
2022-08-09T04:04:59.293Z,12.40
2022-08-09T04:07:51.122Z,12.50
2022-08-09T04:10:20.383Z,12.50
2022-08-09T04:12:50.825Z,12.50
2022-08-09T04:15:52.571Z,12.60
2022-08-09T04:18:08.713Z,12.60
2022-08-09T04:20:38.491Z,12.70
2022-08-09T04:23:09.847Z,12.70
2022-08-09T04:25:39.568Z,12.70
2022-08-09T04:28:08.094Z,12.80
2022-08-09T04:30:36.180Z,12.90
2022-08-09T04:33:04.246Z,12.90
2022-08-09T04:35:33.063Z,13.00
2022-08-09T04:38:03.778Z,13.10
2022-08-09T04:40:46.199Z,13.20
2022-08-09T04:43:15.153Z,13.60
2022-08-09T04:45:52.994Z,14.00
2022-08-09T04:48:23.929Z,14.30
2022-08-09T04:51:06.406Z,14.60
2022-08-09T04:53:35.927Z,15.00
2022-08-09T04:56:05.555Z,15.30
2022-08-09T04:58:34.654Z,15.60
2022-08-09T05:01:16.351Z,15.90
2022-08-09T05:03:47.095Z,16.20
2022-08-09T05:06:25.774Z,16.50
2022-08-09T05:09:00.291Z,16.80
2022-08-09T05:11:30.408Z,17.00
2022-08-09T05:14:00.369Z,17.30
2022-08-09T05:16:31.657Z,17.50
2022-08-09T05:19:00.810Z,17.60
2022-08-09T05:21:36.616Z,17.60
2022-08-09T05:24:18.214Z,17.80
2022-08-09T05:26:57.232Z,17.70
2022-08-09T05:29:31.174Z,18.00
2022-08-09T05:32:02.923Z,17.80
2022-08-09T05:34:33.985Z,17.80
2022-08-09T05:37:05.915Z,18.10
2022-08-09T05:39:43.537Z,18.30
2022-08-09T05:42:17.887Z,18.50
2022-08-09T05:44:59.990Z,18.60
2022-08-09T05:47:30.397Z,18.80
2022-08-09T05:50:34.849Z,18.90
2022-08-09T05:52:53.314Z,19.20
2022-08-09T05:55:24.474Z,19.20
2022-08-09T05:57:57.563Z,19.30
2022-08-09T06:00:29.398Z,19.50
2022-08-09T06:02:58.567Z,19.50
2022-08-09T06:05:30.645Z,19.20
2022-08-09T06:08:19.695Z,19.30
2022-08-09T06:10:54.161Z,19.40
2022-08-09T06:13:22.782Z,19.60
2022-08-09T06:15:52.298Z,19.90
2022-08-09T06:18:24.778Z,19.60
2022-08-09T06:20:54.757Z,19.50
2022-08-09T06:23:58.205Z,19.80
2022-08-09T06:26:20.292Z,20.10
2022-08-09T06:28:49.879Z,20.30
2022-08-09T06:31:30.756Z,20.20
2022-08-09T06:34:07.620Z,20.40
2022-08-09T06:36:37.419Z,20.40
2022-08-09T06:39:14.801Z,20.70
2022-08-09T06:42:08.941Z,21.00
2022-08-09T06:44:37.094Z,20.90
2022-08-09T06:47:06.131Z,21.00
2022-08-09T06:49:52.310Z,21.10
2022-08-09T06:52:30.858Z,21.30
2022-08-09T06:55:10.001Z,21.30
2022-08-09T06:58:02.795Z,21.20
2022-08-09T07:00:49.910Z,21.10
2022-08-09T07:03:27.825Z,21.30
2022-08-09T07:06:04.502Z,21.50
2022-08-09T07:08:37.197Z,21.30
2022-08-09T07:11:06.839Z,21.50
2022-08-09T07:14:03.936Z,21.40
2022-08-09T07:16:42.129Z,21.10
2022-08-09T07:19:23.191Z,21.20
2022-08-09T07:21:57.200Z,21.60
2022-08-09T07:24:40.588Z,21.50
2022-08-09T07:27:26.945Z,21.30
2022-08-09T07:30:03.361Z,21.40
2022-08-09T07:32:35.232Z,21.50
2022-08-09T07:35:10.496Z,21.80
2022-08-09T07:37:43.756Z,21.90
2022-08-09T07:40:13.327Z,21.70
2022-08-09T07:42:54.172Z,22.10
2022-08-09T07:45:37.319Z,21.90
2022-08-09T07:48:07.667Z,21.90
2022-08-09T07:51:09.801Z,22.20
2022-08-09T07:54:04.916Z,22.10
2022-08-09T07:56:34.072Z,22.20
2022-08-09T07:59:12.668Z,22.20
2022-08-09T08:01:52.783Z,22.40
2022-08-09T08:04:31.305Z,22.30
2022-08-09T08:07:09.596Z,22.40
2022-08-09T08:09:53.485Z,22.50
2022-08-09T08:12:31.331Z,22.60
2022-08-09T08:14:59.610Z,22.60
2022-08-09T08:17:54.198Z,22.70
2022-08-09T08:20:28.702Z,22.90
2022-08-09T08:23:06.370Z,22.90
2022-08-09T08:25:48.416Z,22.90
2022-08-09T08:28:26.225Z,22.70
2022-08-09T08:31:04.884Z,22.90
2022-08-09T08:33:53.001Z,22.80
2022-08-09T08:36:29.785Z,23.10
2022-08-09T08:38:59.683Z,22.60
2022-08-09T08:41:50.205Z,22.80
2022-08-09T08:44:27.086Z,22.50
2022-08-09T08:47:02.961Z,22.30
2022-08-09T08:49:47.024Z,22.80
2022-08-09T08:52:48.489Z,22.70
2022-08-09T08:55:06.452Z,23.10
2022-08-09T08:57:37.189Z,22.70
2022-08-09T09:00:08.254Z,22.70
2022-08-09T09:02:50.114Z,22.80
2022-08-09T09:05:57.467Z,23.20
2022-08-09T09:08:14.174Z,22.80
2022-08-09T09:11:00.133Z,23.20
2022-08-09T09:13:34.801Z,22.80
2022-08-09T09:16:15.475Z,22.50
2022-08-09T09:18:48.789Z,22.90
2022-08-09T09:21:26.524Z,22.50
2022-08-09T09:23:58.512Z,22.50
2022-08-09T09:26:27.641Z,22.40
2022-08-09T09:29:03.440Z,22.60
2022-08-09T09:32:06.460Z,22.30
2022-08-09T09:34:29.014Z,22.30
2022-08-09T09:36:59.214Z,22.10
2022-08-09T09:39:50.350Z,22.30
2022-08-09T09:42:28.224Z,22.60
2022-08-09T09:45:04.454Z,23.10
2022-08-09T09:47:36.920Z,22.90
2022-08-09T09:50:23.101Z,23.10
2022-08-09T09:52:57.380Z,23.00
2022-08-09T09:55:32.643Z,22.80
2022-08-09T09:58:17.268Z,22.90
2022-08-09T10:00:55.018Z,22.90
2022-08-09T10:03:57.353Z,22.80
2022-08-09T10:06:28.580Z,23.00
2022-08-09T10:09:11.963Z,23.00
2022-08-09T10:12:12.144Z,23.30
2022-08-09T10:14:48.489Z,22.80
2022-08-09T10:17:40.123Z,23.00
2022-08-09T10:20:10.826Z,23.30
2022-08-09T10:22:43.863Z,23.30
2022-08-09T10:25:16.148Z,23.00
2022-08-09T10:27:57.997Z,22.80
2022-08-09T10:34:05.176Z,23.20
2022-08-09T10:36:04.695Z,23.00
2022-08-09T10:38:54.518Z,23.60
2022-08-09T10:41:25.501Z,23.30
2022-08-09T10:43:59.456Z,23.00
2022-08-09T10:47:01.123Z,22.50
2022-08-09T10:49:51.501Z,22.10
2022-08-09T10:52:42.966Z,22.50
2022-08-09T10:55:22.900Z,23.20
2022-08-09T10:57:55.987Z,23.40
2022-08-09T11:03:02.462Z,23.00
2022-08-09T11:03:49.773Z,22.80
2022-08-09T11:06:22.914Z,23.20
2022-08-09T11:08:53.267Z,23.20
2022-08-09T11:11:23.099Z,23.40
2022-08-09T11:14:06.076Z,23.20
2022-08-09T11:16:41.487Z,23.00
2022-08-09T11:22:10.204Z,23.40
2022-08-09T11:25:09.745Z,23.40
2022-08-09T11:28:05.379Z,24.40
2022-08-09T11:30:35.647Z,23.50
2022-08-09T11:33:06.951Z,23.80
2022-08-09T11:35:50.145Z,23.80
2022-08-09T11:38:22.340Z,23.30
2022-08-09T11:40:57.508Z,22.90
2022-08-09T11:43:43.573Z,23.10
2022-08-09T11:46:12.180Z,23.30
2022-08-09T11:48:57.555Z,22.90
2022-08-09T11:52:57.147Z,23.30
2022-08-09T11:54:28.848Z,23.10
2022-08-09T11:57:46.842Z,23.50
2022-08-09T12:00:16.378Z,24.10
2022-08-09T12:02:51.071Z,24.00
2022-08-09T12:05:22.837Z,24.10
2022-08-09T12:07:54.729Z,23.60
2022-08-09T12:10:38.321Z,23.90
2022-08-09T12:14:08.168Z,23.70
2022-08-09T12:16:03.277Z,23.30
2022-08-09T12:18:33.605Z,23.30
2022-08-09T12:21:26.219Z,23.70
2022-08-09T12:24:08.483Z,22.40
2022-08-09T12:26:41.928Z,23.10
2022-08-09T12:29:33.674Z,23.30
2022-08-09T12:32:06.102Z,23.20
2022-08-09T12:34:34.536Z,23.20
2022-08-09T12:37:09.706Z,23.40
2022-08-09T12:40:00.280Z,23.60
2022-08-09T12:42:32.205Z,23.60
2022-08-09T12:45:00.527Z,23.50
2022-08-09T12:47:32.614Z,23.50
2022-08-09T12:50:24.939Z,23.70
2022-08-09T12:53:08.934Z,23.60
2022-08-09T12:56:14.088Z,23.40
2022-08-09T12:58:35.112Z,23.40
2022-08-09T13:01:20.729Z,23.30
2022-08-09T13:03:59.159Z,22.90
2022-08-09T13:06:34.714Z,23.30
2022-08-09T13:09:07.711Z,23.00
2022-08-09T13:11:39.470Z,22.80
2022-08-09T13:14:41.698Z,22.90
2022-08-09T13:17:02.422Z,22.90
2022-08-09T13:20:07.027Z,22.90
2022-08-09T13:22:38.241Z,22.90
2022-08-09T13:25:13.680Z,23.10
2022-08-09T13:27:48.645Z,23.10
2022-08-09T13:30:48.851Z,23.30
2022-08-09T13:33:17.076Z,22.80
2022-08-09T13:36:37.413Z,23.20
2022-08-09T13:38:57.795Z,23.20
2022-08-09T13:41:58.991Z,23.00
2022-08-09T13:44:17.502Z,23.20
2022-08-09T13:47:25.474Z,23.20
2022-08-09T13:49:55.777Z,22.90
2022-08-09T13:52:23.335Z,22.90
2022-08-09T13:55:00.606Z,23.70
2022-08-09T13:57:39.637Z,23.60
2022-08-09T14:00:12.101Z,23.30
2022-08-09T14:02:42.655Z,23.40
2022-08-09T14:06:00.668Z,23.40
2022-08-09T14:08:18.271Z,23.20
2022-08-09T14:10:50.326Z,23.40
2022-08-09T14:13:28.171Z,22.80
2022-08-09T14:16:14.646Z,22.20
2022-08-09T14:18:51.989Z,22.00
2022-08-09T14:21:24.418Z,22.20
2022-08-09T14:23:56.714Z,22.90
2022-08-09T14:26:31.710Z,22.90
2022-08-09T14:29:08.355Z,22.80
2022-08-09T14:32:10.781Z,22.70
2022-08-09T14:34:43.515Z,22.70
2022-08-09T14:37:12.966Z,22.90
2022-08-09T14:39:47.953Z,22.90
2022-08-09T14:42:31.149Z,22.60
2022-08-09T14:46:40.405Z,22.50
2022-08-09T14:47:58.408Z,22.90
2022-08-09T14:50:32.485Z,22.60
2022-08-09T14:53:00.889Z,22.80
2022-08-09T14:55:32.573Z,23.00
2022-08-09T14:58:03.061Z,23.10
2022-08-09T15:00:35.202Z,22.90
2022-08-09T15:03:05.668Z,23.00
2022-08-09T15:05:34.051Z,23.40
2022-08-09T15:08:05.365Z,22.90
2022-08-09T15:10:35.782Z,22.80
2022-08-09T15:13:04.645Z,22.70
2022-08-09T15:15:34.528Z,22.60
2022-08-09T15:18:14.073Z,22.50
2022-08-09T15:21:57.802Z,23.00
2022-08-09T15:24:01.528Z,22.90
2022-08-09T15:26:31.265Z,22.90
2022-08-09T15:29:04.231Z,23.00
2022-08-09T15:31:40.717Z,23.10
2022-08-09T15:34:32.123Z,23.20
2022-08-09T15:36:59.739Z,22.90
2022-08-09T15:39:34.540Z,22.90
2022-08-09T15:42:03.529Z,22.60
2022-08-09T15:44:32.432Z,22.70
2022-08-09T15:47:04.426Z,23.00
2022-08-09T15:49:33.906Z,22.80
2022-08-09T15:52:05.867Z,23.00
2022-08-09T15:54:51.396Z,23.10
2022-08-09T15:57:33.875Z,23.50
2022-08-09T16:00:03.387Z,23.30
2022-08-09T16:02:35.979Z,23.30
2022-08-09T16:05:06.926Z,23.30
2022-08-09T16:07:39.446Z,23.50
2022-08-09T16:10:38.440Z,23.60
2022-08-09T16:13:02.454Z,23.30
2022-08-09T16:16:10.398Z,23.60
2022-08-09T16:18:20.883Z,23.50
2022-08-09T16:20:53.294Z,23.60
2022-08-09T16:23:21.852Z,23.60
2022-08-09T16:25:50.195Z,23.20
2022-08-09T16:28:18.194Z,23.10
2022-08-09T16:30:58.742Z,22.80
2022-08-09T16:33:31.029Z,22.90
2022-08-09T16:36:08.483Z,22.70
2022-08-09T16:38:42.569Z,22.80
2022-08-09T16:41:16.717Z,22.80
2022-08-09T16:43:46.699Z,23.10
2022-08-09T16:46:18.549Z,23.00
2022-08-09T16:49:02.086Z,22.80
2022-08-09T16:51:40.829Z,23.00
2022-08-09T16:54:27.823Z,22.80
2022-08-09T16:56:59.739Z,22.90
2022-08-09T16:59:28.285Z,23.10
2022-08-09T17:02:03.001Z,23.00
2022-08-09T17:04:37.348Z,23.10
2022-08-09T17:08:43.200Z,23.30
2022-08-09T17:10:02.199Z,23.20
2022-08-09T17:12:32.563Z,23.20
2022-08-09T17:15:00.922Z,23.30
2022-08-09T17:17:29.247Z,23.10
2022-08-09T17:20:30.431Z,23.00
2022-08-09T17:22:52.739Z,23.00
2022-08-09T17:25:23.751Z,23.40
2022-08-09T17:27:54.558Z,22.90
2022-08-09T17:30:25.525Z,22.80
2022-08-09T17:32:54.937Z,22.90
2022-08-09T17:35:27.285Z,22.80
2022-08-09T17:38:11.726Z,22.80
2022-08-09T17:40:47.206Z,22.70
2022-08-09T17:43:33.790Z,22.80
2022-08-09T17:46:07.085Z,22.60
2022-08-09T17:48:39.092Z,22.40
2022-08-09T17:51:18.247Z,22.30
2022-08-09T17:53:52.149Z,22.20
2022-08-09T17:56:22.036Z,22.20
2022-08-09T17:58:56.218Z,22.00
2022-08-09T18:01:24.483Z,21.90
2022-08-09T18:03:54.469Z,21.80
2022-08-09T18:06:30.893Z,21.70
2022-08-09T18:09:00.005Z,21.60
2022-08-09T18:11:28.947Z,21.50
2022-08-09T18:14:02.505Z,21.50
2022-08-09T18:16:49.342Z,21.30
2022-08-09T18:21:00.836Z,21.40
2022-08-09T18:22:13.142Z,21.30
2022-08-09T18:24:45.705Z,21.30
2022-08-09T18:27:49.229Z,21.20
2022-08-09T18:30:36.071Z,21.00
2022-08-09T18:32:54.468Z,20.90
2022-08-09T18:35:53.228Z,21.00
2022-08-09T18:38:13.248Z,20.90
2022-08-09T18:40:43.122Z,20.90
2022-08-09T18:43:12.649Z,20.90
2022-08-09T18:46:50.226Z,20.80
2022-08-09T18:48:30.318Z,20.60
2022-08-09T18:51:00.956Z,20.50
2022-08-09T18:53:55.945Z,20.70
2022-08-09T18:56:28.221Z,20.80
2022-08-09T18:58:57.267Z,20.50
2022-08-09T19:01:25.995Z,20.30
2022-08-09T19:04:06.120Z,20.30
2022-08-09T19:06:39.513Z,20.20
2022-08-09T19:10:13.147Z,20.20
2022-08-09T19:12:11.507Z,20.20
2022-08-09T19:14:40.244Z,20.20
2022-08-09T19:17:11.905Z,20.10
2022-08-09T19:19:42.286Z,20.00
2022-08-09T19:22:12.255Z,20.00
2022-08-09T19:25:07.429Z,20.10
2022-08-09T19:27:36.281Z,19.90
2022-08-09T19:30:23.075Z,19.90
2022-08-09T19:32:56.633Z,19.90
2022-08-09T19:35:30.173Z,19.70
2022-08-09T19:38:18.966Z,19.60
2022-08-09T19:40:51.366Z,19.50
2022-08-09T19:44:00.225Z,19.50
2022-08-09T19:46:14.503Z,19.60
2022-08-09T19:49:01.139Z,19.50
2022-08-09T19:51:32.349Z,19.40
2022-08-09T19:54:09.190Z,19.50
2022-08-09T19:56:46.198Z,19.50
2022-08-09T19:59:40.069Z,19.40
2022-08-09T20:02:29.328Z,19.40
2022-08-09T20:05:02.465Z,19.40
2022-08-09T20:07:56.992Z,19.30
2022-08-09T20:10:34.804Z,19.40
2022-08-09T20:13:08.710Z,19.40
2022-08-09T20:16:38.240Z,19.20
2022-08-09T20:21:08.501Z,19.10
2022-08-09T20:23:38.843Z,19.10
2022-08-09T20:26:13.217Z,19.00
2022-08-09T20:28:48.513Z,19.00
2022-08-09T20:31:18.408Z,19.00
2022-08-09T20:33:46.819Z,19.00
2022-08-09T20:36:27.105Z,18.90
2022-08-09T20:40:13.428Z,18.90
2022-08-09T20:41:46.537Z,18.70
2022-08-09T20:44:26.487Z,18.70
2022-08-09T20:46:57.787Z,18.70
2022-08-09T20:49:28.604Z,18.70
2022-08-09T20:51:56.823Z,18.60
2022-08-09T20:54:25.855Z,18.70
2022-08-09T20:56:57.455Z,18.70
2022-08-09T21:00:31.224Z,18.60
2022-08-09T21:02:18.660Z,18.50
2022-08-09T21:05:57.734Z,18.50
2022-08-09T21:07:38.674Z,18.40
2022-08-09T21:10:09.124Z,18.40
2022-08-09T21:12:39.452Z,18.30
2022-08-09T21:15:12.681Z,18.30
2022-08-09T21:18:11.010Z,18.30
2022-08-09T21:20:31.591Z,18.30
2022-08-09T21:23:00.609Z,18.30
2022-08-09T21:25:58.857Z,18.30
2022-08-09T21:28:34.833Z,18.30
2022-08-09T21:31:16.130Z,18.20
2022-08-09T21:33:50.404Z,18.30
2022-08-09T21:36:20.665Z,18.10
2022-08-09T21:38:57.862Z,18.20
2022-08-09T21:41:59.735Z,18.20
2022-08-09T21:44:32.751Z,18.10
2022-08-09T21:47:07.854Z,18.20
2022-08-09T21:49:40.126Z,18.10
2022-08-09T21:52:14.834Z,18.10
2022-08-09T21:54:46.123Z,18.10
2022-08-09T21:57:36.883Z,18.00
2022-08-09T22:00:02.814Z,18.00
2022-08-09T22:02:36.129Z,18.00
2022-08-09T22:05:08.899Z,18.00
2022-08-09T22:07:52.174Z,18.10
2022-08-09T22:10:23.096Z,18.00
2022-08-09T22:12:52.407Z,17.90
2022-08-09T22:15:23.331Z,17.80
2022-08-09T22:18:02.921Z,18.00
2022-08-09T22:20:31.534Z,17.90
2022-08-09T22:23:00.009Z,17.70
2022-08-09T22:26:07.135Z,17.60
2022-08-09T22:28:21.026Z,17.70
2022-08-09T22:30:59.063Z,17.80
2022-08-09T22:33:42.528Z,17.70
2022-08-09T22:36:19.235Z,17.70
2022-08-09T22:38:48.100Z,17.60
2022-08-09T22:41:16.259Z,17.60
2022-08-09T22:44:01.895Z,17.60
2022-08-09T22:48:11.073Z,17.50
2022-08-09T22:49:24.957Z,17.50
2022-08-09T22:51:57.686Z,17.60
2022-08-09T22:54:27.119Z,17.60
2022-08-09T22:56:57.109Z,17.60
2022-08-09T22:59:57.732Z,17.50
2022-08-09T23:02:19.900Z,17.50
2022-08-09T23:04:54.169Z,17.60
2022-08-09T23:08:23.284Z,17.60
2022-08-09T23:10:29.463Z,17.50
2022-08-09T23:12:58.030Z,17.40
2022-08-09T23:15:26.101Z,17.30
2022-08-09T23:17:54.377Z,17.30
2022-08-09T23:20:25.323Z,17.30
2022-08-09T23:22:53.457Z,17.30
2022-08-09T23:25:21.559Z,17.40
2022-08-09T23:27:57.325Z,17.40
2022-08-09T23:30:40.665Z,17.40
2022-08-09T23:33:19.866Z,17.20
2022-08-09T23:36:05.027Z,17.20
2022-08-09T23:38:34.894Z,17.20
2022-08-09T23:41:04.187Z,17.20
2022-08-09T23:43:32.664Z,17.10
2022-08-09T23:46:00.764Z,17.10
2022-08-09T23:48:28.789Z,17.00
2022-08-09T23:50:58.443Z,17.00
2022-08-09T23:53:30.489Z,17.00
2022-08-09T23:56:06.294Z,16.90
2022-08-09T23:58:35.017Z,16.90
